Flight Track Log - Related Links

Times and Time Zones

All times are in EDT time to prevent confusion due to time zone crossing. See the AWI3704 flight status page for this flight to view local times or setup timezone preferences in your user account.

Time Position Orientation Groundspeed Altitude Reporting Facility
EDT Latitude Longitude Course Direction KTS MPH feet Rate Location/Type
Sun 11:38:23 AM 42.7483 -73.8283 220° Southwest 150 173 1,400  Level Boston Center
Sun 11:39:30 AM 42.7433 -73.8989 265° West 188 216 3,800 2,147 Climbing Boston Center
Sun 11:40:00 AM 42.7334 -74.1719 270° West  Level FlightAware Approximate
Sun 11:40:12 AM 42.7447 -73.9442 272° West 197 227 5,300  Level Boston Center
Sun 11:41:00 AM 42.7333 -74.2959 270° West  Level FlightAware Approximate
Sun 11:41:12 AM 42.7083 -74.0253 239° Southwest 217 250 7,400  Level Boston Center
Sun 11:42:00 AM 42.6717 -74.3840 220° Southwest  Level FlightAware Approximate
Sun 11:42:12 AM 42.6589 -74.1172 234° Southwest 257 296 9,800  Level Boston Center
Sun 11:43:00 AM 42.6016 -74.4629 220° Southwest  Level FlightAware Approximate
Sun 11:43:12 AM 42.6283 -74.2178 248° West 280 322 12,100  Level Boston Center
Sun 11:44:12 AM 42.5953 -74.3214 247° West 301 346 14,900 2,450 Climbing Boston Center
Sun 11:45:12 AM 42.5622 -74.4275 247° West 306 352 17,000 1,818 Climbing Boston Center
Sun 11:46:24 AM 42.4850 -74.5461 229° Southwest 341 392 18,900 909 Climbing Boston Center
Sun 11:47:24 AM 42.4128 -74.6250 219° Southwest 368 423 19,000 29 Climbing Boston Center
Sun 11:49:53 AM 42.2133 -74.8531 220° Southwest 371 427 19,000  Level New York Center
Sun 11:50:53 AM 42.1375 -74.9406 221° Southwest 371 427 19,000  Level New York Center
Sun 11:51:53 AM 42.0614 -75.0308 221° Southwest 371 427 19,000  Level New York Center
Sun 11:52:53 AM 41.9856 -75.1125 219° Southwest 371 427 19,000  Level New York Center
Sun 11:53:53 AM 41.9081 -75.1797 213° Southwest 366 421 19,000 -200 Level New York Center
Sun 11:54:53 AM 41.8222 -75.2519 212° Southwest 371 427 18,600 -1,000 Descending New York Center
Sun 11:55:53 AM 41.7297 -75.3264 211° Southwest 366 421 17,000 -1,600 Descending New York Center
Sun 11:56:53 AM 41.6481 -75.3903 210° Southwest 354 407 15,400 -1,500 Descending New York Center
Sun 11:57:53 AM 41.5708 -75.4542 212° Southwest 341 392 14,000 -1,450 Descending New York Center
Sun 11:58:53 AM 41.5019 -75.5075 210° Southwest 329 379 12,500 -1,000 Descending New York Center
Sun 11:59:53 AM 41.4244 -75.5683 210° Southwest 329 379 12,000 -250 Descending New York Center
Sun 12:00:53 PM 41.3469 -75.6292 211° Southwest 329 379 12,000  Level New York Center
Sun 12:01:53 PM 41.2572 -75.6864 206° Southwest 329 379 12,000  Level New York Center
Sun 12:02:53 PM 41.1619 -75.6767 176° South 319 367 12,000  Level New York Center
Sun 12:03:53 PM 41.0778 -75.6431 163° South 337 388 12,000 50 Level New York Center
Sun 12:04:53 PM 40.9769 -75.6111 167° South 343 395 12,100  Climbing New York Center
Sun 12:05:53 PM 40.8928 -75.5831 166° South 355 409 12,000 -50 Descending New York Center
Sun 12:06:53 PM 40.7981 -75.5517 166° South 355 409 12,000 50 Level New York Center
Sun 12:07:53 PM 40.6956 -75.5144 165° South 350 403 12,100 -50 Climbing New York Center
Sun 12:08:53 PM 40.6028 -75.4861 167° South 350 403 11,900 -700 Descending New York Center
Sun 12:09:53 PM 40.5186 -75.4558 165° South 340 391 10,700 -1,200 Descending New York Center
Sun 12:10:53 PM 40.4303 -75.4253 165° South 324 373 9,500 -1,200 Descending New York Center
Sun 12:11:53 PM 40.3528 -75.3792 156° South 313 360 8,300 -1,200 Descending New York Center
Sun 12:12:53 PM 40.2794 -75.3389 157° South 301 346 7,100 -850 Descending New York Center
Sun 12:13:53 PM 40.2119 -75.3019 157° South 264 304 6,600 -800 Descending New York Center
Sun 12:14:53 PM 40.1528 -75.2681 156° South 252 290 5,500 -1,050 Descending New York Center
Sun 12:15:53 PM 40.0936 -75.2372 158° South 238 274 4,500 -866 Descending New York Center
Sun 12:16:30 PM 40.0667 -75.2167 150° Southeast 217 250 4,100 -309 Descending Philadelphia TRACON
Sun 12:17:30 PM 40.0000 -75.1833 159° South 219 252 4,000 -50 Descending Philadelphia TRACON
Sun 12:18:30 PM 39.9500 -75.1667 166° South 221 254 4,000 -524 Level Philadelphia TRACON
Sun 12:19:36 PM 39.8833 -75.1500 169° South 209 241 2,900 -1,000 Descending Philadelphia TRACON

Login

Don't have an account? Register now (free) for customized features, flight alerts, and more!